Time;durP1;ratioP1;P1;durP2;ratioP2;P2;SDS_P1;SDS_P2;PMS_P1;PMS_P2;Temp;Humidity;BMP_temperature;BMP_pressure;BME280_temperature;BME280_humidity;BME280_pressure;Samples;Min_cycle;Max_cycle;Signal;HPM_P1;HPM_P2
2023/12/31 00:00:59;;;;;;;4.57;2.08;;;4.40;99.90;;;3.55;100.00;96760.13;4945204;28;20034;-36
2023/12/31 00:03:24;;;;;;;4.35;2.33;;;4.30;99.90;;;3.49;100.00;96751.56;4949815;28;20085;-36
2023/12/31 00:05:50;;;;;;;4.95;2.25;;;4.30;99.90;;;3.50;100.00;96756.75;4948680;28;20031;-36
2023/12/31 00:08:16;;;;;;;4.57;2.22;;;4.20;99.90;;;3.43;100.00;96748.16;4948577;28;20121;-36
2023/12/31 00:10:41;;;;;;;3.97;2.22;;;4.20;99.90;;;3.43;100.00;96749.94;4946637;28;20035;-36
2023/12/31 00:13:07;;;;;;;3.75;2.10;;;4.20;99.90;;;3.39;100.00;96740.41;4946570;28;20066;-36
2023/12/31 00:15:33;;;;;;;3.50;2.33;;;4.10;99.90;;;3.35;100.00;96733.56;4947678;28;20196;-36
2023/12/31 00:17:58;;;;;;;3.05;2.03;;;4.10;99.90;;;3.35;100.00;96736.16;4945518;28;20152;-36
2023/12/31 00:20:24;;;;;;;3.67;2.30;;;4.10;99.90;;;3.30;100.00;96727.56;4948957;28;20045;-36
2023/12/31 00:22:50;;;;;;;3.83;2.30;;;4.00;99.90;;;3.27;100.00;96722.41;4948574;28;20090;-36
2023/12/31 00:25:16;;;;;;;3.90;2.10;;;4.00;99.90;;;3.24;100.00;96712.91;4948909;28;20118;-36
2023/12/31 00:27:42;;;;;;;6.28;2.38;;;4.00;99.90;;;3.20;100.00;96711.25;4945751;28;20476;-36
2023/12/31 00:30:08;;;;;;;4.50;2.55;;;2.20;99.90;;;3.04;100.00;96689.84;4947710;28;20787;-36
2023/12/31 00:32:34;;;;;;;3.50;2.40;;;3.90;99.90;;;3.08;100.00;96701.06;4948274;28;20499;-36
2023/12/31 00:35:00;;;;;;;4.22;2.20;;;3.80;99.90;;;3.03;100.00;96702.03;4944864;28;20038;-36
2023/12/31 00:37:26;;;;;;;3.95;2.20;;;3.80;99.90;;;3.01;100.00;96693.34;4948209;28;20034;-36
2023/12/31 00:39:52;;;;;;;4.05;2.40;;;3.80;99.90;;;3.00;100.00;96688.19;4945900;28;20031;-36
2023/12/31 00:42:17;;;;;;;4.03;2.50;;;3.80;99.90;;;2.97;100.00;96696.06;4943813;28;20592;-36
2023/12/31 00:44:43;;;;;;;4.03;2.60;;;3.70;99.90;;;2.75;100.00;96665.19;4947924;28;20023;-36
2023/12/31 00:47:09;;;;;;;4.72;2.60;;;3.70;99.90;;;2.95;100.00;96697.81;4946948;28;20043;-36
2023/12/31 00:49:34;;;;;;;3.47;2.33;;;3.70;99.90;;;2.94;100.00;96688.28;4949273;28;20302;-35
2023/12/31 00:52:00;;;;;;;5.97;2.65;;;3.70;99.90;;;2.89;100.00;96677.97;4945998;28;20027;-36
2023/12/31 00:54:26;;;;;;;4.75;2.50;;;3.70;99.90;;;2.90;100.00;96673.63;4948677;28;20085;-36
2023/12/31 00:56:51;;;;;;;3.45;2.30;;;3.70;99.90;;;2.84;100.00;96677.19;4946620;28;20518;-36
2023/12/31 00:59:17;;;;;;;5.60;2.83;;;3.60;99.90;;;2.82;100.00;96674.59;4948023;28;20073;-37
2023/12/31 01:01:43;;;;;;;6.20;2.95;;;3.60;99.90;;;2.79;100.00;96679.84;4947394;28;20035;-37
2023/12/31 01:04:09;;;;;;;5.40;3.10;;;3.60;99.90;;;2.79;100.00;96669.44;4949541;28;20035;-36
2023/12/31 01:06:34;;;;;;;5.15;2.53;;;3.60;99.90;;;2.78;100.00;96667.75;4947677;28;20023;-36
2023/12/31 01:09:00;;;;;;;6.13;2.80;;;3.60;99.90;;;2.79;100.00;96656.44;4946296;28;20035;-38
2023/12/31 01:11:29;;;;;;;6.35;3.15;;;3.60;99.90;;;2.78;100.00;96656.44;4946697;28;20027;-36
2023/12/31 01:13:54;;;;;;;5.80;3.10;;;3.60;99.90;;;2.79;100.00;96659.03;4945260;28;20035;-38
2023/12/31 01:16:20;;;;;;;5.13;2.85;;;3.70;99.90;;;2.79;100.00;96659.03;4945480;28;20094;-37
2023/12/31 01:18:46;;;;;;;7.70;3.92;;;3.60;99.90;;;2.77;100.00;96659.97;4946347;28;20509;-37
2023/12/31 01:21:11;;;;;;;7.03;3.60;;;3.60;99.90;;;2.73;100.00;96651.34;4946292;28;20677;-38
2023/12/31 01:23:37;;;;;;;4.95;3.08;;;3.60;99.90;;;2.74;100.00;96650.44;4947101;28;20498;-37
2023/12/31 01:26:03;;;;;;;5.03;3.28;;;3.60;99.90;;;2.79;100.00;96653.81;4946689;28;20039;-37
2023/12/31 01:28:29;;;;;;;7.60;3.42;;;3.60;99.90;;;2.78;100.00;96644.31;4948132;28;20030;-37
2023/12/31 01:30:55;;;;;;;6.95;3.63;;;3.60;99.90;;;2.80;100.00;96647.75;4951234;28;20543;-38
2023/12/31 01:33:21;;;;;;;10.18;3.70;;;3.70;99.90;;;2.79;100.00;96632.13;4949682;28;20114;-36
2023/12/31 01:35:47;;;;;;;7.35;3.60;;;3.60;99.90;;;2.81;100.00;96630.34;4951233;28;20032;-36
2023/12/31 01:38:12;;;;;;;9.98;3.85;;;3.60;99.90;;;2.88;100.00;96615.50;4949881;28;20428;-37
2023/12/31 01:40:38;;;;;;;5.70;3.22;;;3.70;99.90;;;2.91;100.00;96629.31;4945875;28;20035;-36
2023/12/31 01:43:04;;;;;;;5.85;3.30;;;3.70;99.90;;;2.88;100.00;96615.50;4947944;28;20031;-36
2023/12/31 01:45:29;;;;;;;5.28;3.20;;;3.70;99.90;;;2.90;100.00;96611.09;4950048;28;20600;-37
2023/12/31 01:47:55;;;;;;;5.00;2.85;;;3.70;99.90;;;2.77;100.00;96587.91;4951183;28;20023;-36
2023/12/31 01:50:22;;;;;;;5.68;3.20;;;3.70;99.90;;;2.91;100.00;96603.28;4947543;28;20035;-36
2023/12/31 01:52:49;;;;;;;5.90;3.03;;;3.70;99.90;;;2.94;100.00;96602.34;4948684;28;20031;-36
2023/12/31 01:55:16;;;;;;;5.07;3.03;;;3.70;99.90;;;2.91;100.00;96597.19;4948579;28;20398;-36
2023/12/31 01:57:41;;;;;;;4.20;2.72;;;3.70;99.90;;;2.90;100.00;96593.72;4948754;28;20121;-36
2023/12/31 02:00:10;;;;;;;3.83;2.55;;;3.70;99.90;;;2.88;100.00;96592.91;4949976;28;20031;-36
2023/12/31 02:02:36;;;;;;;4.30;2.80;;;3.70;99.90;;;2.87;100.00;96580.75;4949086;28;20047;-36
2023/12/31 02:05:02;;;;;;;4.32;2.60;;;3.70;99.90;;;2.98;100.00;96589.22;4948068;28;20117;-37
2023/12/31 02:07:27;;;;;;;3.42;2.25;;;3.80;99.90;;;3.00;100.00;96586.59;4949279;28;20654;-36
2023/12/31 02:09:53;;;;;;;3.85;2.67;;;3.80;99.90;;;3.08;100.00;96592.50;4948111;28;20086;-36
2023/12/31 02:12:19;;;;;;;5.22;2.60;;;3.90;99.90;;;3.10;100.00;96590.72;4949144;28;20058;-36
2023/12/31 02:14:45;;;;;;;4.82;2.78;;;3.90;99.90;;;3.15;100.00;96581.06;4949777;28;20027;-38
2023/12/31 02:17:11;;;;;;;4.07;2.50;;;3.90;99.90;;;3.15;100.00;96577.59;4946205;28;20050;-38
2023/12/31 02:19:38;;;;;;;4.05;2.38;;;3.90;99.90;;;3.20;100.00;96578.38;4949051;28;20526;-37
2023/12/31 02:22:07;;;;;;;3.45;2.33;;;4.00;99.90;;;3.21;100.00;96569.66;4946623;28;20475;-37
2023/12/31 02:25:04;;;;;;;3.40;2.30;;;4.00;99.90;;;3.22;100.00;96569.63;4981930;23;20049;-35
2023/12/31 02:27:30;;;;;;;3.83;2.25;;;4.10;99.90;;;3.27;100.00;96571.25;4968711;28;20042;-37
2023/12/31 02:30:00;;;;;;;3.40;2.05;;;4.10;99.90;;;3.18;100.00;96562.78;4966823;28;20031;-37
2023/12/31 02:32:25;;;;;;;3.05;2.22;;;4.00;99.90;;;3.20;100.00;96563.59;4959510;28;20499;-37
2023/12/31 02:34:51;;;;;;;5.40;2.50;;;4.00;99.90;;;3.14;100.00;96563.72;4962505;28;20566;-37
2023/12/31 02:37:17;;;;;;;4.28;2.40;;;4.00;99.90;;;3.13;100.00;96551.59;4964135;28;20070;-37
2023/12/31 02:39:42;;;;;;;5.50;2.65;;;3.90;99.90;;;3.13;100.00;96551.59;4963333;28;20031;-37
2023/12/31 02:42:08;;;;;;;4.82;2.58;;;4.00;99.90;;;3.23;100.00;96537.47;4967539;28;20037;-37
2023/12/31 02:44:34;;;;;;;3.90;2.30;;;4.00;99.90;;;3.31;100.00;96528.63;4965829;28;20042;-37
2023/12/31 02:46:59;;;;;;;3.80;2.50;;;4.10;99.90;;;3.41;100.00;96523.19;4965221;28;20480;-37
2023/12/31 02:49:25;;;;;;;5.22;2.58;;;4.20;99.90;;;3.48;100.00;96510.84;4963351;28;20030;-37
2023/12/31 02:51:51;;;;;;;3.30;2.00;;;4.30;99.90;;;3.71;100.00;96523.34;4962354;28;20497;-37
2023/12/31 02:54:16;;;;;;;3.22;2.10;;;4.50;99.90;;;3.87;100.00;96520.38;4964544;28;20047;-37
2023/12/31 02:56:42;;;;;;;3.22;2.13;;;4.60;99.90;;;3.98;100.00;96507.91;4968516;28;20035;-37
2023/12/31 02:59:08;;;;;;;3.20;2.15;;;4.70;99.90;;;4.09;100.00;96486.78;4965965;28;20026;-37
2023/12/31 03:01:33;;;;;;;4.30;2.40;;;4.90;99.90;;;4.25;100.00;96487.22;4963824;28;20046;-37
2023/12/31 03:03:59;;;;;;;3.90;2.25;;;5.00;99.90;;;4.37;100.00;96489.53;4966468;28;20487;-37
2023/12/31 03:06:29;;;;;;;3.70;2.10;;;5.10;99.90;;;4.48;100.00;96479.63;4963243;28;20043;-37
2023/12/31 03:08:58;;;;;;;4.22;1.92;;;5.30;99.90;;;4.60;100.00;96475.84;4966118;28;20027;-37
2023/12/31 03:11:25;;;;;;;4.22;2.30;;;5.40;99.90;;;4.67;100.00;96466.94;4964422;28;20097;-37
2023/12/31 03:13:51;;;;;;;3.85;2.22;;;5.40;99.90;;;4.66;100.00;96454.75;4965788;28;20022;-38
2023/12/31 03:16:17;;;;;;;3.58;2.30;;;5.50;99.90;;;4.75;100.00;96457.09;4964428;28;20038;-37
2023/12/31 03:18:43;;;;;;;3.13;1.88;;;5.50;99.90;;;4.78;100.00;96461.41;4967818;28;20399;-38
2023/12/31 03:21:15;;;;;;;3.50;2.10;;;5.50;99.90;;;4.82;100.00;96462.16;4966072;28;20042;-38
2023/12/31 03:23:41;;;;;;;4.57;2.28;;;5.50;99.90;;;4.79;100.00;96444.81;4963337;28;20022;-38
2023/12/31 03:26:07;;;;;;;3.28;1.80;;;5.50;99.90;;;4.77;100.00;96439.66;4965994;28;20050;-37
2023/12/31 03:28:32;;;;;;;4.05;2.17;;;5.60;99.90;;;4.87;100.00;96445.44;4963462;28;20039;-38
2023/12/31 03:30:58;;;;;;;2.75;1.90;;;5.60;99.90;;;4.82;100.00;96441.25;4965245;28;20464;-38
2023/12/31 03:33:24;;;;;;;4.30;2.00;;;5.60;99.90;;;4.93;100.00;96447.88;4960548;28;20030;-38
2023/12/31 03:35:49;;;;;;;2.85;1.90;;;5.60;99.90;;;4.98;100.00;96442.50;4965322;28;20066;-38
2023/12/31 03:38:15;;;;;;;3.13;1.55;;;5.70;99.90;;;5.05;100.00;96440.59;4947203;28;20545;-37
2023/12/31 03:40:41;;;;;;;1.90;1.55;;;5.70;99.90;;;5.10;100.00;96423.00;4963809;28;20038;-37
2023/12/31 03:43:07;;;;;;;2.83;1.65;;;5.80;99.90;;;5.15;100.00;96428.91;4965309;28;20022;-37
2023/12/31 03:45:32;;;;;;;2.03;1.38;;;5.80;99.90;;;5.15;100.00;96424.56;4965086;28;20034;-38
2023/12/31 03:47:58;;;;;;;2.78;1.75;;;5.80;99.90;;;5.08;100.00;96407.38;4962432;28;20030;-38
2023/12/31 03:50:24;;;;;;;2.85;1.65;;;5.80;99.90;;;5.15;100.00;96408.91;4963343;28;20038;-38
2023/12/31 03:52:49;;;;;;;2.95;1.52;;;5.90;99.90;;;5.20;100.00;96413.09;4965067;28;20471;-38
2023/12/31 03:55:15;;;;;;;2.60;1.60;;;5.90;99.90;;;5.21;100.00;96417.44;4965080;28;20034;-38
2023/12/31 03:57:41;;;;;;;2.05;1.50;;;5.90;99.90;;;5.26;100.00;96415.56;4964968;28;20027;-38
2023/12/31 04:00:09;;;;;;;5.60;1.67;;;6.00;99.90;;;5.20;100.00;96406.13;4964599;28;20072;-38
2023/12/31 04:02:35;;;;;;;2.65;1.75;;;6.00;99.90;;;5.27;100.00;96398.94;4958662;28;20035;-38
2023/12/31 04:05:02;;;;;;;2.00;1.52;;;6.00;99.90;;;5.27;100.00;96404.16;4963346;28;20034;-38
2023/12/31 04:07:28;;;;;;;2.55;1.80;;;6.00;99.90;;;5.20;100.00;96394.81;4959365;28;20191;-38
2023/12/31 04:09:54;;;;;;;3.90;1.60;;;5.90;99.90;;;5.21;100.00;96401.75;4966266;28;20043;-38
2023/12/31 04:12:19;;;;;;;2.50;1.50;;;5.80;99.90;;;5.08;100.00;96396.91;4964199;28;20073;-38
2023/12/31 04:14:45;;;;;;;2.28;1.48;;;5.80;99.90;;;4.98;100.00;96390.25;4963315;28;20045;-38
2023/12/31 04:17:11;;;;;;;2.30;1.45;;;5.70;99.90;;;4.88;100.00;96376.63;4960942;28;20126;-38
2023/12/31 04:19:37;;;;;;;2.33;1.50;;;5.60;99.90;;;4.79;100.00;96369.06;4961854;28;20060;-38
2023/12/31 04:22:02;;;;;;;2.70;1.42;;;5.50;99.90;;;4.71;100.00;96369.28;4962159;28;20030;-38
2023/12/31 04:24:28;;;;;;;2.83;1.50;;;5.50;99.90;;;4.64;100.00;96359.09;4958882;28;20031;-38
2023/12/31 04:26:54;;;;;;;3.70;1.70;;;5.40;99.90;;;4.59;100.00;96359.22;4964343;28;20093;-38
2023/12/31 04:29:19;;;;;;;2.40;1.80;;;5.30;99.90;;;4.55;100.00;96360.22;4961328;28;20042;-38
2023/12/31 04:31:47;;;;;;;1.95;1.25;;;5.30;99.90;;;4.52;100.00;96361.19;4963363;28;20549;-38
2023/12/31 04:34:13;;;;;;;2.25;1.42;;;5.30;99.90;;;4.46;100.00;96357.88;4963148;28;20035;-38
2023/12/31 04:36:46;;;;;;;2.05;1.55;;;5.20;99.90;;;4.50;100.00;96347.28;4960495;28;20039;-38
2023/12/31 04:39:12;;;;;;;3.72;1.70;;;5.20;99.90;;;4.51;100.00;96350.78;4963060;28;20391;-38
2023/12/31 04:41:38;;;;;;;2.72;1.45;;;5.20;99.90;;;4.49;100.00;96349.97;4961179;28;20030;-38
2023/12/31 04:44:04;;;;;;;2.30;1.50;;;5.20;99.90;;;4.39;100.00;96324.09;4960737;28;20037;-38
2023/12/31 04:46:30;;;;;;;2.63;1.50;;;5.20;99.90;;;4.37;100.00;96325.91;4964822;28;20038;-38
2023/12/31 04:48:56;;;;;;;2.88;2.00;;;5.20;99.90;;;4.43;100.00;96340.53;4965886;28;20116;-38
2023/12/31 04:51:29;;;;;;;2.38;1.38;;;5.20;99.90;;;4.44;100.00;96338.81;4958411;28;20242;-38
2023/12/31 04:53:56;;;;;;;3.47;1.38;;;5.20;99.90;;;4.49;100.00;96331.69;4964593;28;20118;-38
2023/12/31 04:56:26;;;;;;;2.25;1.40;;;5.20;99.90;;;4.46;100.00;96337.00;4959655;28;20126;-38
2023/12/31 04:58:54;;;;;;;3.30;1.92;;;5.20;99.90;;;4.46;100.00;96330.00;4966790;28;20027;-37
2023/12/31 05:01:20;;;;;;;3.85;1.70;;;5.20;99.90;;;4.45;100.00;96319.59;4964949;28;20097;-37
2023/12/31 05:03:47;;;;;;;2.67;1.67;;;5.20;99.90;;;4.49;100.00;96321.25;4965410;28;20030;-37
2023/12/31 05:06:14;;;;;;;2.35;1.58;;;5.20;99.90;;;4.52;100.00;96313.31;4965152;28;20035;-37
2023/12/31 05:08:44;;;;;;;2.20;1.38;;;5.30;99.90;;;4.51;100.00;96315.06;4963794;28;20039;-37
2023/12/31 05:11:11;;;;;;;2.80;1.65;;;5.20;99.90;;;4.50;100.00;96317.72;4961902;28;20375;-38
2023/12/31 05:13:38;;;;;;;3.50;1.50;;;5.20;99.90;;;4.41;100.00;96308.41;4961406;28;20034;-38
2023/12/31 05:16:13;;;;;;;1.75;1.30;;;5.20;99.90;;;4.47;100.00;96320.41;4963875;28;20042;-38
2023/12/31 05:18:46;;;;;;;2.50;1.60;;;5.20;99.90;;;4.39;100.00;96302.38;4962583;28;20039;-39
2023/12/31 05:21:12;;;;;;;1.83;1.45;;;5.10;99.90;;;4.45;100.00;96312.66;4962243;28;20030;-38
2023/12/31 05:23:38;;;;;;;3.22;1.50;;;5.20;99.90;;;4.48;100.00;96311.69;4960496;28;20566;-38
2023/12/31 05:26:04;;;;;;;2.00;1.40;;;5.20;99.90;;;4.51;100.00;96309.00;4963908;28;20046;-38
2023/12/31 05:28:30;;;;;;;2.88;1.60;;;5.20;99.90;;;4.51;100.00;96303.78;4964402;28;20554;-38
2023/12/31 05:30:56;;;;;;;2.47;1.40;;;5.20;99.90;;;4.51;100.00;96314.22;4966364;28;20045;-38
2023/12/31 05:33:21;;;;;;;2.65;1.40;;;5.20;99.90;;;4.48;100.00;96304.72;4961869;28;20488;-38
2023/12/31 05:35:47;;;;;;;1.35;1.00;;;5.20;99.90;;;4.51;100.00;96293.34;4963807;28;20342;-38
2023/12/31 05:38:13;;;;;;;2.38;1.35;;;5.20;99.90;;;4.49;100.00;96295.13;4960733;28;20621;-38
2023/12/31 05:40:39;;;;;;;1.67;1.27;;;5.20;99.90;;;4.48;100.00;96282.97;4958434;28;20023;-37
2023/12/31 05:43:05;;;;;;;2.55;1.58;;;5.20;99.90;;;4.55;100.00;96280.13;4962407;28;20054;-37
2023/12/31 05:45:30;;;;;;;2.70;1.25;;;5.30;99.90;;;4.58;100.00;96284.41;4957665;28;20043;-37
2023/12/31 05:47:56;;;;;;;1.75;1.30;;;5.30;99.90;;;4.57;100.00;96285.28;4967496;28;20097;-37
2023/12/31 05:50:22;;;;;;;2.22;1.40;;;5.30;99.90;;;4.53;100.00;96275.84;4959357;28;20035;-37
2023/12/31 05:52:48;;;;;;;2.38;1.30;;;5.20;99.90;;;4.53;100.00;96273.25;4966563;28;20041;-37
2023/12/31 05:55:13;;;;;;;2.15;1.45;;;5.20;99.90;;;4.46;100.00;96276.94;4964954;28;20019;-37
2023/12/31 05:57:40;;;;;;;1.95;1.27;;;5.20;99.90;;;4.42;100.00;96285.78;4963492;28;20030;-37
2023/12/31 06:00:07;;;;;;;1.77;1.30;;;5.10;99.90;;;4.38;100.00;96283.25;4962583;28;20062;-37
2023/12/31 06:02:33;;;;;;;2.05;1.15;;;5.10;99.90;;;4.22;100.00;96266.34;4960816;28;20035;-37
2023/12/31 06:04:59;;;;;;;1.95;1.30;;;5.10;99.90;;;4.33;100.00;96271.25;4965027;28;20028;-37
2023/12/31 06:07:25;;;;;;;2.42;1.50;;;5.10;99.90;;;4.17;100.00;96247.38;4960207;28;20522;-37
2023/12/31 06:09:50;;;;;;;2.83;1.30;;;5.00;99.90;;;4.26;100.00;96254.91;4965825;28;20038;-37
2023/12/31 06:12:16;;;;;;;3.47;1.20;;;5.10;99.90;;;4.19;100.00;96237.75;4965522;28;20562;-38
2023/12/31 06:14:42;;;;;;;1.38;1.25;;;5.10;99.90;;;4.33;100.00;96246.00;4963353;28;20387;-37
2023/12/31 06:17:07;;;;;;;1.67;1.13;;;5.10;99.90;;;4.36;100.00;96253.75;4966224;28;20064;-37
2023/12/31 06:19:33;;;;;;;1.50;1.17;;;5.10;99.90;;;4.35;100.00;96257.25;4963955;28;20511;-37
2023/12/31 06:21:59;;;;;;;2.75;1.30;;;5.10;99.90;;;4.40;100.00;96263.19;4967373;28;20030;-37
2023/12/31 06:24:25;;;;;;;2.30;1.23;;;5.10;99.90;;;4.43;100.00;96263.97;4966649;28;20170;-37
2023/12/31 06:26:52;;;;;;;2.83;1.30;;;5.20;99.90;;;4.37;100.00;96260.66;4970325;28;20208;-37
2023/12/31 06:29:18;;;;;;;1.58;1.27;;;5.20;99.90;;;4.58;100.00;96269.59;4965248;28;20043;-37
2023/12/31 06:31:44;;;;;;;2.13;1.30;;;5.30;99.90;;;4.65;100.00;96262.44;4965188;28;20039;-37
2023/12/31 06:34:10;;;;;;;1.10;1.00;;;5.40;99.90;;;4.64;100.00;96244.19;4967006;28;20073;-38
2023/12/31 06:36:36;;;;;;;1.63;0.90;;;5.40;99.90;;;4.75;100.00;96270.81;4966198;28;20065;-38
2023/12/31 06:39:02;;;;;;;1.95;1.08;;;5.50;99.90;;;4.84;100.00;96274.88;4966581;28;20038;-38
2023/12/31 06:41:28;;;;;;;1.75;1.17;;;5.60;99.90;;;4.91;100.00;96265.94;4962829;28;20058;-38
2023/12/31 06:43:53;;;;;;;1.98;1.15;;;5.60;99.90;;;4.93;100.00;96256.28;4968557;28;20041;-38
2023/12/31 06:46:19;;;;;;;1.70;1.13;;;5.70;99.90;;;4.99;100.00;96266.56;4963675;28;20034;-37
2023/12/31 06:48:45;;;;;;;1.17;0.90;;;5.70;99.90;;;5.05;100.00;96265.50;4962950;28;20027;-38
2023/12/31 06:51:10;;;;;;;1.52;1.05;;;5.80;99.90;;;5.09;100.00;96262.72;4967527;28;20078;-38
2023/12/31 06:53:36;;;;;;;1.42;0.90;;;5.80;99.90;;;5.14;100.00;96276.50;4965412;28;20034;-38
2023/12/31 06:56:06;;;;;;;1.80;1.05;;;5.90;99.90;;;5.20;100.00;96271.97;4969335;28;20055;-38
2023/12/31 06:58:34;;;;;;;2.08;1.20;;;5.90;99.90;;;5.24;100.00;96270.94;4967992;28;20039;-37
2023/12/31 07:01:00;;;;;;;1.73;0.80;;;5.90;99.90;;;5.26;100.00;96270.00;4966257;28;20499;-38
2023/12/31 07:03:25;;;;;;;1.88;0.90;;;6.00;99.90;;;5.32;100.00;96268.94;4965497;28;20031;-38
2023/12/31 07:05:51;;;;;;;1.40;1.00;;;6.00;99.90;;;5.33;100.00;96273.28;4965069;28;20031;-38
2023/12/31 07:08:17;;;;;;;1.42;1.10;;;6.00;99.90;;;5.35;100.00;96266.22;4968697;28;20038;-38
2023/12/31 07:10:43;;;;;;;2.00;1.10;;;6.10;99.90;;;5.38;100.00;96271.34;4963824;28;20038;-38
2023/12/31 07:13:08;;;;;;;1.48;1.00;;;6.10;99.90;;;5.43;100.00;96285.09;4968576;28;20027;-37
2023/12/31 07:15:35;;;;;;;1.95;1.08;;;6.10;99.90;;;5.46;100.00;96286.78;4961715;28;20038;-38
2023/12/31 07:18:02;;;;;;;1.83;1.00;;;6.10;99.90;;;5.45;100.00;96280.66;4965334;28;20034;-37
2023/12/31 07:20:28;;;;;;;1.55;1.00;;;6.20;99.90;;;5.49;100.00;96281.41;4966632;28;20026;-37
2023/12/31 07:22:54;;;;;;;1.90;1.00;;;6.20;99.90;;;5.52;100.00;96286.56;4968501;28;20039;-37
2023/12/31 07:25:21;;;;;;;1.92;1.10;;;6.20;99.90;;;5.54;100.00;96289.97;4965071;28;20669;-38
2023/12/31 07:27:47;;;;;;;1.80;1.23;;;6.30;99.90;;;5.58;100.00;96283.75;4967323;28;20104;-38
2023/12/31 07:30:13;;;;;;;2.95;1.27;;;6.30;99.90;;;5.73;100.00;96293.66;4965490;28;20519;-36
2023/12/31 07:32:39;;;;;;;2.70;1.15;;;6.40;99.90;;;5.82;100.00;96289.84;4965047;28;20039;-35
2023/12/31 07:35:05;;;;;;;1.88;1.23;;;6.50;99.90;;;5.84;100.00;96289.81;4967388;28;20085;-36
2023/12/31 07:37:31;;;;;;;3.45;1.40;;;6.60;99.90;;;6.00;100.00;96300.59;4966003;28;20038;-36
2023/12/31 07:39:57;;;;;;;2.63;1.25;;;6.60;99.90;;;6.04;100.00;96303.03;4965072;28;20743;-38
2023/12/31 07:42:23;;;;;;;1.27;0.90;;;6.70;99.90;;;6.09;100.00;96310.75;4965056;28;23452;-38
2023/12/31 07:44:49;;;;;;;2.10;1.20;;;6.80;99.90;;;6.10;100.00;96299.34;4960444;28;20115;-38
2023/12/31 07:47:15;;;;;;;1.90;1.10;;;6.80;99.90;;;6.18;100.00;96307.78;4966027;28;20023;-38
2023/12/31 07:49:41;;;;;;;1.35;0.93;;;6.80;99.90;;;6.23;100.00;96297.16;4963701;28;20034;-36
2023/12/31 07:52:07;;;;;;;2.28;1.00;;;6.90;99.90;;;6.28;100.00;96305.66;4969414;28;20038;-36
2023/12/31 07:54:33;;;;;;;1.33;1.13;;;7.00;99.90;;;6.35;100.00;96295.81;4964933;28;20065;-37
2023/12/31 07:56:59;;;;;;;2.20;1.20;;;7.00;99.90;;;6.39;100.00;96290.41;4965275;28;20121;-37
2023/12/31 07:59:26;;;;;;;1.58;0.90;;;7.00;99.90;;;6.39;100.00;96298.28;4956897;28;20072;-37
2023/12/31 08:01:52;;;;;;;1.65;0.90;;;7.10;99.90;;;6.37;100.00;96291.38;4959830;28;20425;-37
2023/12/31 08:04:18;;;;;;;1.65;1.05;;;7.00;99.90;;;6.34;100.00;96281.88;4964948;28;20035;-37
2023/12/31 08:06:43;;;;;;;1.55;0.90;;;7.00;99.90;;;6.29;100.00;96284.66;4964414;28;20466;-37
2023/12/31 08:09:11;;;;;;;1.60;1.02;;;7.00;99.90;;;6.21;100.00;96285.84;4964553;28;20041;-37
2023/12/31 08:11:37;;;;;;;1.40;1.02;;;6.90;99.90;;;6.16;100.00;96272.09;4961741;28;20105;-36
2023/12/31 08:14:03;;;;;;;1.83;1.13;;;6.80;99.90;;;6.15;100.00;96283.47;4962287;28;20068;-36
2023/12/31 08:16:29;;;;;;;1.88;1.05;;;6.80;99.90;;;6.11;100.00;96274.88;4961674;28;20121;-36
2023/12/31 08:18:54;;;;;;;1.67;1.00;;;6.80;99.90;;;6.10;100.00;96275.78;4960711;28;20581;-37
2023/12/31 08:21:20;;;;;;;2.63;1.20;;;6.80;99.90;;;6.09;100.00;96274.94;4959431;28;20034;-37
2023/12/31 08:23:46;;;;;;;1.65;1.23;;;6.70;99.90;;;6.03;100.00;96274.31;4959783;28;20037;-37
2023/12/31 08:26:13;;;;;;;1.15;0.93;;;6.70;99.90;;;6.03;100.00;96269.06;4967289;28;20030;-37
2023/12/31 08:28:39;;;;;;;1.90;1.10;;;6.70;99.90;;;6.09;100.00;96282.78;4966526;28;20046;-37
2023/12/31 08:31:05;;;;;;;1.23;0.98;;;6.80;99.90;;;6.20;100.00;96285.00;4966281;28;20041;-36
2023/12/31 08:33:31;;;;;;;1.35;0.95;;;6.90;99.90;;;6.26;100.00;96279.56;4961896;28;20050;-37
2023/12/31 08:35:56;;;;;;;2.90;1.33;;;6.90;99.90;;;6.33;100.00;96276.69;4963295;28;20275;-37
2023/12/31 08:38:22;;;;;;;2.55;1.20;;;7.00;99.90;;;6.39;100.00;96273.81;4960881;28;20084;-37
2023/12/31 08:40:48;;;;;;;2.42;1.15;;;7.00;99.90;;;6.44;100.00;96258.78;4962061;28;20034;-37
2023/12/31 08:43:16;;;;;;;1.80;1.10;;;7.10;99.90;;;6.52;100.00;96259.38;4965418;28;20403;-37
2023/12/31 08:45:43;;;;;;;2.10;1.20;;;7.20;99.90;;;6.52;100.00;96255.91;4962383;28;20220;-37
2023/12/31 08:48:10;;;;;;;2.03;1.20;;;7.20;99.90;;;6.59;100.00;96255.59;4962178;28;20027;-37
2023/12/31 08:50:36;;;;;;;1.63;1.20;;;7.30;99.90;;;6.70;100.00;96252.53;4965137;28;20137;-37
2023/12/31 08:53:02;;;;;;;2.28;1.40;;;7.30;99.90;;;6.70;100.00;96249.94;4960839;28;20121;-37
2023/12/31 08:55:28;;;;;;;1.77;1.20;;;7.30;99.90;;;6.74;100.00;96258.50;4961672;28;20039;-37
2023/12/31 08:57:54;;;;;;;2.65;1.10;;;7.40;99.90;;;6.79;100.00;96240.84;4965352;28;20093;-37
2023/12/31 09:00:20;;;;;;;2.25;1.35;;;7.40;99.90;;;6.83;100.00;96232.78;4965265;28;20037;-36
2023/12/31 09:02:46;;;;;;;2.05;1.00;;;7.50;99.90;;;6.84;100.00;96244.13;4962489;28;20027;-37
2023/12/31 09:05:12;;;;;;;2.50;1.48;;;7.50;99.90;;;6.79;100.00;96241.69;4963631;28;20049;-37
2023/12/31 09:07:40;;;;;;;2.35;1.33;;;7.50;99.90;;;6.93;100.00;96237.66;4962926;28;20476;-37
2023/12/31 09:10:07;;;;;;;1.48;1.08;;;7.50;99.90;;;6.96;100.00;96241.00;4963109;28;20592;-37
2023/12/31 09:12:33;;;;;;;1.00;0.90;;;7.60;99.90;;;6.98;100.00;96239.19;4962511;28;20042;-37
2023/12/31 09:14:59;;;;;;;2.10;1.20;;;7.60;99.90;;;7.02;100.00;96240.75;4964252;28;20065;-37
2023/12/31 09:17:24;;;;;;;2.58;1.10;;;7.70;99.90;;;6.99;100.00;96216.44;4961500;28;20077;-37
2023/12/31 09:19:53;;;;;;;1.95;1.20;;;7.70;99.90;;;7.03;100.00;96225.88;4966357;28;20175;-37
2023/12/31 09:22:18;;;;;;;1.40;0.90;;;7.80;99.90;;;7.22;100.00;96236.44;4953919;28;20277;-37
2023/12/31 09:24:45;;;;;;;1.50;1.10;;;7.80;99.90;;;7.28;100.00;96241.44;4961150;28;20085;-36
2023/12/31 09:27:12;;;;;;;2.33;1.27;;;7.90;99.90;;;7.35;100.00;96237.63;4961835;28;20030;-37
2023/12/31 09:29:38;;;;;;;1.52;0.98;;;7.90;99.90;;;7.40;100.00;96235.66;4965846;28;20088;-37
2023/12/31 09:32:03;;;;;;;1.83;1.10;;;8.00;99.90;;;7.45;100.00;96245.97;4965042;28;20034;-37
2023/12/31 09:34:29;;;;;;;1.70;1.20;;;8.10;99.90;;;7.50;100.00;96243.13;4962735;28;20109;-37
2023/12/31 09:36:55;;;;;;;1.90;1.15;;;8.10;99.90;;;7.43;99.33;96232.91;4964163;28;20031;-37
2023/12/31 09:39:21;;;;;;;2.25;1.23;;;8.20;99.90;;;7.65;100.00;96240.69;4965473;28;20033;-36
2023/12/31 09:41:53;;;;;;;1.40;1.08;;;8.30;99.90;;;7.75;100.00;96233.28;4964103;28;20459;-36
2023/12/31 09:44:19;;;;;;;2.80;1.08;;;8.40;99.90;;;7.91;100.00;96227.34;4960789;28;20180;-37
2023/12/31 09:47:06;;;;;;;1.60;0.90;;;8.50;99.90;;;8.13;98.79;96227.19;4963978;28;20562;-37
2023/12/31 09:49:36;;;;;;;2.17;0.98;;;8.70;99.90;;;8.25;96.48;96220.53;4965822;28;20038;-37
2023/12/31 09:52:04;;;;;;;2.30;1.23;;;8.80;99.90;;;8.31;93.57;96221.13;4966697;28;20030;-37
2023/12/31 09:54:35;;;;;;;2.08;1.13;;;8.90;99.90;;;8.35;91.35;96213.94;4964785;28;20066;-37
2023/12/31 09:57:01;;;;;;;2.08;1.15;;;9.00;99.90;;;8.46;92.68;96209.06;4965413;28;20081;-37
2023/12/31 09:59:28;;;;;;;2.25;1.10;;;9.10;99.90;;;8.51;84.91;96212.31;4967497;28;20062;-37
2023/12/31 10:02:00;;;;;;;1.63;1.10;;;9.20;99.90;;;8.55;87.56;96200.72;4966833;28;20118;-37
2023/12/31 10:04:26;;;;;;;1.42;1.02;;;9.10;99.90;;;8.61;87.05;96189.06;4964278;28;20023;-37
2023/12/31 10:06:53;;;;;;;2.30;1.30;;;9.30;99.90;;;8.76;89.68;96179.59;4967771;28;20042;-37
2023/12/31 10:09:20;;;;;;;3.42;1.20;;;9.30;99.90;;;8.84;90.61;96177.44;4966217;28;20034;-37
2023/12/31 10:11:46;;;;;;;3.72;1.30;;;9.40;99.90;;;8.86;87.07;96159.81;4966296;28;20376;-37
2023/12/31 10:14:13;;;;;;;2.58;1.40;;;9.40;99.90;;;8.86;87.11;96151.06;4964276;28;20043;-37
2023/12/31 10:16:45;;;;;;;1.77;1.40;;;9.40;99.90;;;8.81;84.62;96148.69;4964527;28;20045;-37
2023/12/31 10:19:11;;;;;;;2.28;1.10;;;9.40;99.90;;;8.80;86.74;96144.34;4963724;28;20098;-37
2023/12/31 10:21:38;;;;;;;1.58;1.25;;;9.40;99.90;;;8.79;90.41;96137.38;4966183;28;20471;-37